Airfield :







YOU CAN JOIN US ON...

 
LOGIN :

Register | Disclaimer

   EN    FR    IT 

 









Legend :    VFR   Marginal VFR   IFR   Intensive IFR   Very Intensive IFR
Visi :
Ceiling :
>= 8 km
>= 3000ft
5 to 8 km
1000 to 3000 ft
1500m to 5 km
500 to 1000 ft
800 to 1500m
200 to 500 ft
< 800m
< 200 ft
Symbols :   Thunderstorms  Fog  Heavy snow  Heavy precipitations  Wind > 20 kt







- Airport Elevation : 193 ft
- IATA code : ZBF


CZBF - Bathurst

CURRENT METAR :
  • 171300Z AUTO 16005KT 9SM CLR 23/19 A2973 RMK SLP070 DENSITY ALT 1300FT

EXPIRED METARs :
  • 171200Z AUTO VRB02KT 9SM CLR 21/17 A2974 RMK SLP072 DENSITY ALT 1000FT
  • 171100Z AUTO 19003KT 9SM BKN055 18/16 A2975 RMK SLP074 DENSITY ALT 800FT

TAF TAF CZBF
Valid from the 17 at 09:00 until the 17 at 21:00 UTC


170848Z 1709/1721 18007KT P6SM SCT120
FM171000 21010KT P6SM BKN030
FM171700 28010G20KT P6SM OVC030
TEMPO 1717/1720 4SM -SHRA BR OVC020
PROB30 1717/1720 VRB15G25KT 2SM TSRA BR BKN007 OVC015CB RMK FCST BASED ON AUTO OBS. NXT FCST BY 171400Z
CZQM FIR / North America



MET'MAP, your aeronautical weather chart ! - Copyright ORBIFLY December 2007 - Disclaimer

ORBIFLY MET'MAP TEAM :

Programming & Development : Alexandra Zaïnal
Concept & Development : Baudouin d'Aumeries
Co-Development & Prog : Marc-Olivier Méhu
Technical & hardware support : Manuel Goepfert

Contact : metmap@orbifly.com




SOURCES & CREDITS :

   NOAA